Time;durP1;ratioP1;P1;durP2;ratioP2;P2;SDS_P1;SDS_P2;PMS_P1;PMS_P2;Temp;Humidity;BMP_temperature;BMP_pressure;BME280_temperature;BME280_humidity;BME280_pressure;Samples;Min_cycle;Max_cycle;Signal;HPM_P1;HPM_P2
2023/12/30 00:01:31;;;;;;;0.67;0.67;;;7.10;99.90;;;;;;4937607;29;20174;-60
2023/12/30 00:03:56;;;;;;;0.97;0.90;;;7.10;99.90;;;;;;4938039;29;20182;-62
2023/12/30 00:06:22;;;;;;;0.70;0.70;;;7.10;99.90;;;;;;4937819;29;20319;-62
2023/12/30 00:08:48;;;;;;;0.77;0.70;;;7.20;99.90;;;;;;4937976;29;20184;-62
2023/12/30 00:11:14;;;;;;;2.20;1.33;;;7.20;99.90;;;;;;4937610;29;20657;-62
2023/12/30 00:13:40;;;;;;;1.25;1.25;;;7.20;99.90;;;;;;4937752;29;20542;-62
2023/12/30 00:16:06;;;;;;;0.40;0.40;;;7.20;99.90;;;;;;4937545;29;20200;-62
2023/12/30 00:18:31;;;;;;;0.40;0.40;;;7.20;99.90;;;;;;4937874;29;20923;-61
2023/12/30 00:20:58;;;;;;;0.60;0.60;;;7.10;99.90;;;;;;4937264;29;20183;-62
2023/12/30 00:23:24;;;;;;;1.95;1.33;;;7.20;99.90;;;;;;4937610;29;20179;-62
2023/12/30 00:25:49;;;;;;;3.10;0.70;;;7.30;99.90;;;;;;4937397;29;20211;-61
2023/12/30 00:28:15;;;;;;;0.50;0.50;;;7.40;99.90;;;;;;4937566;29;20250;-61
2023/12/30 00:30:41;;;;;;;0.50;0.50;;;7.40;99.90;;;;;;4937049;29;20169;-62
2023/12/30 00:33:06;;;;;;;0.77;0.77;;;7.50;99.90;;;;;;4937466;29;20232;-61
2023/12/30 00:35:32;;;;;;;2.33;1.23;;;7.50;99.90;;;;;;4937423;29;20652;-61
2023/12/30 00:37:57;;;;;;;1.17;0.60;;;7.60;99.90;;;;;;4937372;29;20216;-61
2023/12/30 00:40:23;;;;;;;0.97;0.80;;;7.60;99.90;;;;;;4937031;29;20199;-62
2023/12/30 00:42:49;;;;;;;0.47;0.47;;;7.50;99.90;;;;;;4937330;29;20437;-62
2023/12/30 00:45:14;;;;;;;1.43;1.33;;;7.60;99.90;;;;;;4936884;29;20216;-61
2023/12/30 00:47:40;;;;;;;0.90;0.70;;;7.60;99.90;;;;;;4937311;29;20260;-62
2023/12/30 00:50:06;;;;;;;1.17;1.08;;;7.60;99.90;;;;;;4936883;29;20198;-61
2023/12/30 00:52:32;;;;;;;0.70;0.70;;;7.60;99.90;;;;;;4936954;29;20220;-62
2023/12/30 00:54:57;;;;;;;0.70;0.70;;;7.50;99.90;;;;;;4937008;29;20426;-61
2023/12/30 00:57:23;;;;;;;1.17;0.70;;;7.40;99.90;;;;;;4937002;29;20201;-61
2023/12/30 00:59:49;;;;;;;1.13;0.90;;;7.30;99.90;;;;;;4936722;29;20177;-62
2023/12/30 01:02:14;;;;;;;3.23;1.63;;;7.20;99.90;;;;;;4936858;29;20660;-62
2023/12/30 01:04:40;;;;;;;0.40;0.40;;;7.00;99.90;;;;;;4936779;29;20711;-61
2023/12/30 01:07:05;;;;;;;0.63;0.63;;;7.00;99.90;;;;;;4936816;29;20558;-61
2023/12/30 01:09:31;;;;;;;1.33;0.90;;;7.00;99.90;;;;;;4919384;29;20484;-62
2023/12/30 01:11:57;;;;;;;0.50;0.50;;;7.00;99.90;;;;;;4936530;29;20177;-62
2023/12/30 01:14:22;;;;;;;0.40;0.40;;;7.00;99.90;;;;;;4936620;29;20180;-61
2023/12/30 01:16:48;;;;;;;0.60;0.60;;;7.00;99.90;;;;;;4936571;29;20186;-61
2023/12/30 01:19:13;;;;;;;0.77;0.77;;;7.10;99.90;;;;;;4936533;29;20165;-62
2023/12/30 01:21:39;;;;;;;0.50;0.50;;;7.10;99.90;;;;;;4936728;29;20208;-61
2023/12/30 01:24:05;;;;;;;0.63;0.53;;;7.10;99.90;;;;;;4936451;29;20722;-62
2023/12/30 01:26:31;;;;;;;6.13;0.70;;;7.20;99.90;;;;;;4936593;29;20292;-62
2023/12/30 01:28:56;;;;;;;0.70;0.70;;;7.10;99.90;;;;;;4936274;29;20413;-61
2023/12/30 01:31:22;;;;;;;0.30;0.30;;;7.20;99.90;;;;;;4936134;29;20311;-61
2023/12/30 01:33:47;;;;;;;1.43;1.33;;;7.10;99.90;;;;;;4936310;29;20181;-62
2023/12/30 01:36:13;;;;;;;1.23;0.77;;;7.20;99.90;;;;;;4936244;29;20197;-62
2023/12/30 01:38:41;;;;;;;0.80;0.80;;;7.30;99.90;;;;;;4936275;29;20663;-62
2023/12/30 01:41:07;;;;;;;5.68;1.20;;;7.30;99.90;;;;;;4935986;29;20187;-61
2023/12/30 01:43:33;;;;;;;0.60;0.60;;;7.30;99.90;;;;;;4936038;29;20658;-61
2023/12/30 01:46:01;;;;;;;2.40;2.20;;;7.30;99.90;;;;;;4935945;29;20863;-61
2023/12/30 01:48:28;;;;;;;1.20;1.13;;;7.30;99.90;;;;;;4936197;29;20196;-62
2023/12/30 01:50:57;;;;;;;0.50;0.50;;;7.20;99.90;;;;;;4935727;29;20382;-62
2023/12/30 01:53:26;;;;;;;0.70;0.63;;;7.30;99.90;;;;;;4935973;29;20220;-62
2023/12/30 01:55:52;;;;;;;1.00;0.98;;;7.30;99.90;;;;;;4935740;29;20714;-61
2023/12/30 01:58:19;;;;;;;0.40;0.40;;;7.30;99.90;;;;;;4935893;29;20185;-61
2023/12/30 02:00:54;;;;;;;0.47;0.47;;;7.30;99.90;;;;;;4935678;29;20425;-61
2023/12/30 02:03:23;;;;;;;0.52;0.52;;;7.30;99.90;;;;;;4935730;29;20181;-61
2023/12/30 02:05:49;;;;;;;0.70;0.65;;;7.40;99.90;;;;;;4935964;29;20239;-62
2023/12/30 02:08:15;;;;;;;1.40;0.63;;;7.40;99.90;;;;;;4935695;29;20188;-62
2023/12/30 02:10:41;;;;;;;0.75;0.75;;;7.50;99.90;;;;;;4935260;29;20182;-61
2023/12/30 02:13:07;;;;;;;1.37;0.97;;;7.50;99.90;;;;;;4935602;29;20182;-60
2023/12/30 02:15:33;;;;;;;0.80;0.80;;;7.60;99.90;;;;;;4935511;29;20200;-62
2023/12/30 02:18:00;;;;;;;0.70;0.70;;;7.60;99.90;;;;;;4935518;29;20204;-62
2023/12/30 02:20:26;;;;;;;0.82;0.82;;;7.60;99.90;;;;;;4935068;29;20196;-62
2023/12/30 02:22:52;;;;;;;0.80;0.80;;;7.70;99.90;;;;;;4935080;29;20260;-62
2023/12/30 02:25:17;;;;;;;2.10;1.47;;;7.70;99.90;;;;;;4935079;29;20689;-62
2023/12/30 02:27:44;;;;;;;1.30;0.90;;;7.80;99.90;;;;;;4935381;29;20174;-61
2023/12/30 02:30:11;;;;;;;1.13;1.05;;;7.90;99.90;;;;;;4935202;29;20530;-61
2023/12/30 02:32:36;;;;;;;1.08;1.08;;;7.80;99.90;;;;;;4935202;29;20185;-62
2023/12/30 02:35:02;;;;;;;0.50;0.50;;;7.70;99.90;;;;;;4935248;29;20174;-62
2023/12/30 02:37:28;;;;;;;2.03;1.90;;;7.80;99.90;;;;;;4935121;29;20198;-62
2023/12/30 02:39:53;;;;;;;0.83;0.83;;;7.80;99.90;;;;;;4934952;29;20198;-62
2023/12/30 02:42:19;;;;;;;1.27;0.83;;;7.90;99.90;;;;;;4935187;29;20181;-61
2023/12/30 02:44:45;;;;;;;1.77;1.40;;;7.90;99.90;;;;;;4935320;29;20334;-62
2023/12/30 02:47:10;;;;;;;11.93;3.77;;;7.90;99.90;;;;;;4934997;29;20216;-62
2023/12/30 02:49:36;;;;;;;1.83;0.70;;;7.90;99.90;;;;;;4935097;29;20173;-62
2023/12/30 02:52:02;;;;;;;6.87;2.33;;;8.00;99.90;;;;;;4934996;29;20177;-62
2023/12/30 02:54:28;;;;;;;1.53;1.43;;;8.00;99.90;;;;;;4934956;29;20189;-61
2023/12/30 02:56:53;;;;;;;2.38;1.02;;;7.90;99.90;;;;;;4934972;29;20215;-62
2023/12/30 02:59:19;;;;;;;1.03;0.60;;;8.00;99.90;;;;;;4934988;29;20255;-62
2023/12/30 03:01:44;;;;;;;11.63;1.40;;;8.00;99.90;;;;;;4934732;29;20474;-62
2023/12/30 03:04:10;;;;;;;2.80;1.27;;;7.80;99.90;;;;;;4934938;29;20178;-62
2023/12/30 03:06:36;;;;;;;0.90;0.90;;;7.80;99.90;;;;;;4934733;29;20220;-62
2023/12/30 03:09:02;;;;;;;0.90;0.90;;;7.70;99.90;;;;;;4934746;29;20184;-60
2023/12/30 03:11:27;;;;;;;0.60;0.57;;;7.80;99.90;;;;;;4934550;29;20174;-61
2023/12/30 03:13:53;;;;;;;0.93;0.83;;;7.80;99.90;;;;;;4934882;29;20710;-61
2023/12/30 03:16:19;;;;;;;1.73;1.10;;;7.90;99.90;;;;;;4934854;29;20201;-62
2023/12/30 03:18:46;;;;;;;1.47;1.10;;;7.90;99.90;;;;;;4934805;29;20178;-61
2023/12/30 03:21:16;;;;;;;1.20;1.10;;;7.90;99.90;;;;;;4933334;29;20418;-61
2023/12/30 03:23:42;;;;;;;3.00;0.95;;;7.90;99.90;;;;;;4934738;29;20177;-61
2023/12/30 03:26:09;;;;;;;3.53;2.43;;;7.90;99.90;;;;;;4934535;29;20580;-61
2023/12/30 03:28:35;;;;;;;0.70;0.68;;;7.90;99.90;;;;;;4934600;29;20185;-62
2023/12/30 03:31:01;;;;;;;1.98;1.88;;;7.90;99.90;;;;;;4934202;29;20264;-62
2023/12/30 03:33:27;;;;;;;3.77;1.40;;;7.90;99.90;;;;;;4934414;29;20209;-61
2023/12/30 03:35:53;;;;;;;2.33;1.73;;;7.90;99.90;;;;;;4934400;29;20444;-62
2023/12/30 03:38:19;;;;;;;6.60;1.40;;;7.70;99.90;;;;;;4934530;29;20424;-62
2023/12/30 03:40:44;;;;;;;7.83;1.00;;;7.80;99.90;;;;;;4934255;29;20559;-61
2023/12/30 03:43:10;;;;;;;1.50;1.00;;;7.80;99.90;;;;;;4934393;29;20189;-62
2023/12/30 03:45:36;;;;;;;1.17;1.10;;;7.80;99.90;;;;;;4937668;28;20312;-62
2023/12/30 03:48:04;;;;;;;1.60;1.50;;;7.80;99.90;;;;;;4956636;28;20218;-62
2023/12/30 03:50:30;;;;;;;1.30;1.20;;;7.80;99.90;;;;;;4972371;28;20199;-62
2023/12/30 03:52:55;;;;;;;2.93;2.67;;;7.80;99.90;;;;;;4972517;28;20507;-61
2023/12/30 03:55:21;;;;;;;0.73;0.70;;;7.80;99.90;;;;;;4952112;28;20191;-63
2023/12/30 03:57:46;;;;;;;1.90;1.50;;;7.80;99.90;;;;;;4848856;29;20196;-63
2023/12/30 04:00:12;;;;;;;0.97;0.93;;;7.90;99.90;;;;;;4840620;29;20675;-62
2023/12/30 04:02:39;;;;;;;0.95;0.85;;;7.90;99.90;;;;;;4840755;29;20233;-62
2023/12/30 04:05:05;;;;;;;2.38;1.58;;;7.70;99.90;;;;;;4840792;29;20209;-62
2023/12/30 04:07:32;;;;;;;1.20;1.20;;;7.70;99.90;;;;;;4840778;29;20567;-62
2023/12/30 04:09:58;;;;;;;1.42;1.35;;;7.70;99.90;;;;;;4840611;29;20424;-62
2023/12/30 04:12:23;;;;;;;1.00;0.90;;;7.70;99.90;;;;;;4841053;29;20181;-62
2023/12/30 04:14:49;;;;;;;0.97;0.97;;;7.70;99.90;;;;;;4840888;29;20224;-63
2023/12/30 04:17:15;;;;;;;2.40;2.30;;;7.90;99.90;;;;;;4840647;29;20544;-63
2023/12/30 04:19:40;;;;;;;1.10;0.93;;;7.90;99.90;;;;;;4840587;29;20213;-63
2023/12/30 04:22:06;;;;;;;2.17;1.33;;;7.80;99.90;;;;;;4840565;29;20177;-62
2023/12/30 04:24:32;;;;;;;2.40;1.10;;;7.90;99.90;;;;;;4840671;29;20189;-63
2023/12/30 04:26:57;;;;;;;0.60;0.60;;;7.80;99.90;;;;;;4840611;29;20201;-63
2023/12/30 04:29:24;;;;;;;1.53;1.43;;;7.80;99.90;;;;;;4840515;29;20182;-63
2023/12/30 04:31:50;;;;;;;3.20;0.70;;;7.90;99.90;;;;;;4840343;29;20170;-63
2023/12/30 04:34:15;;;;;;;0.67;0.67;;;7.90;99.90;;;;;;4840627;29;20220;-63
2023/12/30 04:36:41;;;;;;;5.40;1.53;;;7.90;99.90;;;;;;4840529;29;20205;-62
2023/12/30 04:39:06;;;;;;;2.00;1.33;;;7.90;99.90;;;;;;4840519;29;20172;-63
2023/12/30 04:41:32;;;;;;;4.83;1.20;;;7.80;99.90;;;;;;4840253;29;20524;-63
2023/12/30 04:43:58;;;;;;;2.53;1.17;;;7.80;99.90;;;;;;4840498;29;20188;-63
2023/12/30 04:46:23;;;;;;;2.70;0.73;;;7.80;99.90;;;;;;4843386;29;20220;-62
2023/12/30 04:48:52;;;;;;;2.53;1.40;;;7.80;99.90;;;;;;4843809;29;20205;-63
2023/12/30 04:51:18;;;;;;;0.70;0.70;;;7.80;99.90;;;;;;4843487;29;20684;-62
2023/12/30 04:53:44;;;;;;;1.33;1.30;;;7.80;99.90;;;;;;4843792;29;20196;-62
2023/12/30 04:56:19;;;;;;;0.60;0.60;;;7.90;99.90;;;;;;4864295;29;20219;-61
2023/12/30 04:58:45;;;;;;;0.95;0.95;;;7.90;99.90;;;;;;4935174;29;20659;-62
2023/12/30 05:01:11;;;;;;;1.90;1.80;;;7.90;99.90;;;;;;4937067;29;20209;-62
2023/12/30 05:03:40;;;;;;;0.93;0.93;;;7.90;99.90;;;;;;4937280;29;20580;-62
2023/12/30 05:06:06;;;;;;;2.20;1.35;;;7.90;99.90;;;;;;4936976;29;20308;-62
2023/12/30 05:08:31;;;;;;;1.63;1.53;;;7.80;99.90;;;;;;4937049;29;20261;-62
2023/12/30 05:10:57;;;;;;;0.60;0.60;;;7.80;99.90;;;;;;4936694;29;20413;-62
2023/12/30 05:13:23;;;;;;;4.93;1.27;;;7.90;99.90;;;;;;4936927;29;20204;-63
2023/12/30 05:15:49;;;;;;;2.57;1.37;;;7.90;99.90;;;;;;4936883;29;20289;-63
2023/12/30 05:18:15;;;;;;;1.63;1.42;;;8.00;99.90;;;;;;4936840;29;20189;-62
2023/12/30 05:20:41;;;;;;;1.20;1.15;;;8.00;99.90;;;;;;4936510;29;20669;-63
2023/12/30 05:23:07;;;;;;;1.00;1.00;;;8.10;99.90;;;;;;4937241;29;20218;-63
2023/12/30 05:25:32;;;;;;;1.70;1.53;;;8.10;99.90;;;;;;4936558;29;20224;-63
2023/12/30 05:27:58;;;;;;;19.67;1.90;;;8.10;99.90;;;;;;4936676;29;20170;-63
2023/12/30 05:30:24;;;;;;;1.90;1.43;;;8.10;99.90;;;;;;4936372;29;20624;-63
2023/12/30 05:32:49;;;;;;;1.07;0.67;;;8.20;99.90;;;;;;4936634;29;20806;-62
2023/12/30 05:35:15;;;;;;;0.80;0.80;;;8.20;99.90;;;;;;4936572;29;20173;-62
2023/12/30 05:37:41;;;;;;;1.17;1.07;;;8.20;99.90;;;;;;4936584;29;20235;-62
2023/12/30 05:40:08;;;;;;;1.13;0.83;;;8.10;99.90;;;;;;4936271;29;20196;-63
2023/12/30 05:42:34;;;;;;;2.28;2.08;;;8.00;99.90;;;;;;4936380;29;20196;-62
2023/12/30 05:45:00;;;;;;;0.93;0.77;;;8.10;99.90;;;;;;4936493;29;20601;-63
2023/12/30 05:47:25;;;;;;;0.50;0.50;;;8.10;99.90;;;;;;4936274;29;20285;-63
2023/12/30 05:49:51;;;;;;;2.57;1.43;;;8.00;99.90;;;;;;4936269;29;20180;-63
2023/12/30 05:52:17;;;;;;;1.17;1.07;;;8.00;99.90;;;;;;4936068;29;20185;-63
2023/12/30 05:54:44;;;;;;;1.00;0.90;;;8.10;99.90;;;;;;4936146;29;20596;-63
2023/12/30 05:57:10;;;;;;;1.50;1.40;;;8.10;99.90;;;;;;4929709;29;20234;-63
2023/12/30 05:59:36;;;;;;;0.60;0.60;;;8.10;99.90;;;;;;4917050;29;20597;-63
2023/12/30 06:02:02;;;;;;;0.60;0.57;;;8.20;99.90;;;;;;4917007;29;20183;-62
2023/12/30 06:04:29;;;;;;;0.50;0.50;;;8.10;99.90;;;;;;4917068;29;20541;-62
2023/12/30 06:06:55;;;;;;;0.73;0.73;;;8.10;99.90;;;;;;4916962;29;20216;-63
2023/12/30 06:09:21;;;;;;;1.70;1.58;;;8.10;99.90;;;;;;4916943;29;20544;-63
2023/12/30 06:11:48;;;;;;;0.67;0.67;;;8.10;99.90;;;;;;4916760;29;20193;-62
2023/12/30 06:14:14;;;;;;;0.60;0.60;;;8.10;99.90;;;;;;4916934;29;20415;-63
2023/12/30 06:16:39;;;;;;;0.67;0.67;;;8.10;99.90;;;;;;4916867;29;20210;-62
2023/12/30 06:19:05;;;;;;;0.40;0.40;;;8.10;99.90;;;;;;4916739;29;20844;-62
2023/12/30 06:21:31;;;;;;;1.30;1.20;;;8.10;99.90;;;;;;4916459;29;20663;-62
2023/12/30 06:23:56;;;;;;;1.83;0.70;;;8.00;99.90;;;;;;4916833;29;20276;-63
2023/12/30 06:26:22;;;;;;;0.80;0.80;;;8.10;99.90;;;;;;4916646;29;20721;-62
2023/12/30 06:28:47;;;;;;;0.80;0.80;;;8.00;99.90;;;;;;4916667;29;20273;-62
2023/12/30 06:31:13;;;;;;;0.70;0.67;;;7.90;99.90;;;;;;4916452;29;20274;-63
2023/12/30 06:33:39;;;;;;;1.10;1.10;;;7.90;99.90;;;;;;4916594;29;20261;-63
2023/12/30 06:36:06;;;;;;;2.15;1.15;;;7.80;99.90;;;;;;4916448;29;20489;-62
2023/12/30 06:38:32;;;;;;;2.67;1.25;;;7.80;99.90;;;;;;4916419;29;20194;-63
2023/12/30 06:40:58;;;;;;;1.20;1.00;;;7.90;99.90;;;;;;4916105;29;20672;-62
2023/12/30 06:43:23;;;;;;;1.10;1.00;;;7.90;99.90;;;;;;4916442;29;20266;-63
2023/12/30 06:45:49;;;;;;;0.60;0.60;;;7.90;99.90;;;;;;4916380;29;20216;-62
2023/12/30 06:48:17;;;;;;;1.47;0.60;;;8.00;99.90;;;;;;4916387;29;20596;-63
2023/12/30 06:50:43;;;;;;;0.50;0.50;;;8.10;99.90;;;;;;4915900;29;20556;-63
2023/12/30 06:53:08;;;;;;;0.70;0.70;;;8.00;99.90;;;;;;4916263;29;20178;-62
2023/12/30 06:55:34;;;;;;;1.23;1.10;;;8.00;99.90;;;;;;4916076;29;20191;-63
2023/12/30 06:58:00;;;;;;;1.10;1.10;;;7.70;99.90;;;;;;4916063;29;20558;-62
2023/12/30 07:00:25;;;;;;;1.10;1.10;;;7.60;99.90;;;;;;4915751;29;20185;-62
2023/12/30 07:02:51;;;;;;;0.60;0.60;;;7.70;99.90;;;;;;4916052;29;20178;-63
2023/12/30 07:05:17;;;;;;;6.53;1.40;;;7.70;99.90;;;;;;4915810;29;20218;-62
2023/12/30 07:07:42;;;;;;;0.40;0.40;;;7.60;99.90;;;;;;4915581;29;20189;-63
2023/12/30 07:10:08;;;;;;;0.77;0.77;;;7.70;99.90;;;;;;4915734;29;20178;-62
2023/12/30 07:12:34;;;;;;;1.07;1.03;;;7.80;99.90;;;;;;4915836;29;20677;-63
2023/12/30 07:14:59;;;;;;;0.70;0.57;;;7.60;99.90;;;;;;4915969;29;20183;-62
2023/12/30 07:17:25;;;;;;;0.40;0.40;;;7.60;99.90;;;;;;4915794;29;20197;-62
2023/12/30 07:19:51;;;;;;;1.10;1.00;;;7.60;99.90;;;;;;4915662;29;20178;-63
2023/12/30 07:22:19;;;;;;;0.80;0.80;;;7.60;99.90;;;;;;4915552;29;20577;-63
2023/12/30 07:24:46;;;;;;;0.40;0.40;;;7.70;99.90;;;;;;4915861;29;20907;-63
2023/12/30 07:27:12;;;;;;;0.70;0.70;;;7.80;99.90;;;;;;4915631;29;20210;-63
2023/12/30 07:29:38;;;;;;;1.63;0.50;;;7.70;99.90;;;;;;4915633;29;20170;-63
2023/12/30 07:32:03;;;;;;;1.07;0.97;;;7.70;99.90;;;;;;4915506;29;20943;-62
2023/12/30 07:34:29;;;;;;;0.73;0.73;;;7.80;99.90;;;;;;4915636;29;20245;-63
2023/12/30 07:36:56;;;;;;;0.73;0.70;;;7.90;99.90;;;;;;4915583;29;20202;-62
2023/12/30 07:39:22;;;;;;;0.77;0.75;;;7.80;99.90;;;;;;4915501;29;20210;-63
2023/12/30 07:41:47;;;;;;;0.70;0.70;;;7.90;99.90;;;;;;4915343;29;20178;-62
2023/12/30 07:44:15;;;;;;;0.50;0.50;;;7.70;99.90;;;;;;4915932;29;20261;-63
2023/12/30 07:46:41;;;;;;;5.05;1.42;;;7.80;99.90;;;;;;4915377;29;20214;-63
2023/12/30 07:49:07;;;;;;;0.40;0.40;;;7.80;99.90;;;;;;4915375;29;20195;-63
2023/12/30 07:51:32;;;;;;;0.60;0.50;;;7.80;99.90;;;;;;4915178;29;20179;-63
2023/12/30 07:53:58;;;;;;;2.30;0.70;;;7.90;99.90;;;;;;4915623;29;20181;-63
2023/12/30 07:56:23;;;;;;;1.13;1.07;;;7.90;99.90;;;;;;4915411;29;20677;-63
2023/12/30 07:58:49;;;;;;;0.97;0.97;;;7.90;99.90;;;;;;4915478;29;20246;-63
2023/12/30 08:01:14;;;;;;;3.93;1.40;;;7.90;99.90;;;;;;4915216;29;20179;-63
2023/12/30 08:03:40;;;;;;;1.00;0.73;;;7.90;99.90;;;;;;4915363;29;20213;-63
2023/12/30 08:06:06;;;;;;;1.17;0.87;;;8.00;99.90;;;;;;4915251;29;20210;-63
2023/12/30 08:08:32;;;;;;;0.43;0.43;;;8.00;99.90;;;;;;4915415;29;20557;-63
2023/12/30 08:10:58;;;;;;;0.90;0.90;;;7.90;99.90;;;;;;4915159;29;20265;-63
2023/12/30 08:13:24;;;;;;;0.60;0.60;;;7.90;99.90;;;;;;4915281;29;20189;-63
2023/12/30 08:15:50;;;;;;;0.70;0.70;;;7.90;99.90;;;;;;4915312;29;20207;-62
2023/12/30 08:18:15;;;;;;;0.93;0.67;;;7.90;99.90;;;;;;4915160;29;20689;-62
2023/12/30 08:20:41;;;;;;;0.60;0.50;;;7.80;99.90;;;;;;4917387;29;20178;-62
2023/12/30 08:23:06;;;;;;;0.70;0.70;;;7.80;99.90;;;;;;4918833;29;20244;-63
2023/12/30 08:25:32;;;;;;;0.53;0.53;;;7.60;99.90;;;;;;4918779;29;20661;-63
2023/12/30 08:27:58;;;;;;;0.60;0.60;;;7.70;99.90;;;;;;4918834;29;20186;-62
2023/12/30 08:30:23;;;;;;;0.40;0.40;;;7.90;99.90;;;;;;4918613;29;20266;-63
2023/12/30 08:32:49;;;;;;;3.77;3.57;;;8.00;99.90;;;;;;4918722;29;20250;-62
2023/12/30 08:35:15;;;;;;;0.73;0.73;;;8.10;99.90;;;;;;4918582;29;20182;-63
2023/12/30 08:37:40;;;;;;;0.30;0.30;;;8.20;99.90;;;;;;4918767;29;21003;-62
2023/12/30 08:40:09;;;;;;;1.73;1.63;;;8.20;99.90;;;;;;4918389;29;20183;-62
2023/12/30 08:42:35;;;;;;;1.40;1.33;;;8.10;99.90;;;;;;4918546;29;20649;-62
2023/12/30 08:45:04;;;;;;;0.98;0.95;;;8.10;99.90;;;;;;4918524;29;20298;-62
2023/12/30 08:47:32;;;;;;;0.80;0.70;;;8.20;99.90;;;;;;4918273;29;20281;-63
2023/12/30 08:49:58;;;;;;;0.55;0.55;;;8.40;99.90;;;;;;4918456;29;20189;-63
2023/12/30 08:52:23;;;;;;;0.40;0.40;;;8.30;99.90;;;;;;4918328;29;20175;-63
2023/12/30 08:54:49;;;;;;;1.00;0.80;;;8.30;99.90;;;;;;4918435;29;20417;-63
2023/12/30 08:57:14;;;;;;;0.40;0.40;;;8.40;99.90;;;;;;4924751;29;20206;-62
2023/12/30 08:59:40;;;;;;;0.60;0.60;;;8.50;99.90;;;;;;4937076;29;20178;-63
2023/12/30 09:02:06;;;;;;;0.80;0.80;;;8.40;99.90;;;;;;4936980;29;20731;-63
2023/12/30 09:04:31;;;;;;;0.43;0.43;;;8.50;99.90;;;;;;4937136;29;20177;-63
2023/12/30 09:06:57;;;;;;;2.30;0.80;;;8.50;99.90;;;;;;4936978;29;20201;-62
2023/12/30 09:09:23;;;;;;;0.40;0.40;;;8.70;99.90;;;;;;4937070;29;20178;-62
2023/12/30 09:11:48;;;;;;;0.97;0.87;;;8.60;99.90;;;;;;4936714;29;20286;-63
2023/12/30 09:14:14;;;;;;;0.40;0.40;;;8.70;99.90;;;;;;4937040;29;20178;-62
2023/12/30 09:16:39;;;;;;;0.57;0.57;;;8.60;99.90;;;;;;4936786;29;20660;-62
2023/12/30 09:19:05;;;;;;;0.40;0.40;;;8.70;99.90;;;;;;4936799;29;20210;-63
2023/12/30 09:21:31;;;;;;;0.37;0.37;;;8.70;99.90;;;;;;4936590;29;20214;-62
2023/12/30 09:23:57;;;;;;;0.50;0.50;;;8.70;99.70;;;;;;4936871;29;20186;-63
2023/12/30 09:26:22;;;;;;;0.70;0.70;;;8.70;99.70;;;;;;4936606;29;20770;-62
2023/12/30 09:28:48;;;;;;;0.40;0.40;;;8.90;99.90;;;;;;4936724;29;20190;-63
2023/12/30 09:31:16;;;;;;;1.43;1.03;;;9.10;99.60;;;;;;4936011;29;20639;-62
2023/12/30 09:33:42;;;;;;;1.38;0.95;;;9.30;99.50;;;;;;4936683;29;20173;-63
2023/12/30 09:36:07;;;;;;;0.87;0.87;;;9.40;99.10;;;;;;4936473;29;20249;-63
2023/12/30 09:38:33;;;;;;;0.40;0.40;;;9.50;99.00;;;;;;4936585;29;20197;-62
2023/12/30 09:40:59;;;;;;;0.50;0.50;;;9.70;98.70;;;;;;4936213;29;20414;-62
2023/12/30 09:43:27;;;;;;;2.50;0.73;;;9.80;98.60;;;;;;4936551;29;20715;-63
2023/12/30 09:45:55;;;;;;;4.03;1.08;;;9.80;98.00;;;;;;4936189;29;20210;-62
2023/12/30 09:48:25;;;;;;;0.50;0.50;;;9.90;98.20;;;;;;4936313;29;20213;-62
2023/12/30 09:50:51;;;;;;;0.85;0.85;;;9.90;98.10;;;;;;4935973;29;20178;-62
2023/12/30 09:53:19;;;;;;;0.88;0.80;;;9.80;97.90;;;;;;4936211;29;20181;-62
2023/12/30 09:55:46;;;;;;;0.77;0.65;;;9.60;97.90;;;;;;4936153;29;20250;-62
2023/12/30 09:58:15;;;;;;;1.02;0.63;;;9.50;98.20;;;;;;4935916;29;20284;-61
2023/12/30 10:00:44;;;;;;;0.60;0.55;;;9.50;98.60;;;;;;4936091;29;20542;-62
2023/12/30 10:03:10;;;;;;;0.40;0.40;;;9.50;98.50;;;;;;4936054;29;20178;-62
2023/12/30 10:05:36;;;;;;;1.05;0.80;;;9.60;98.40;;;;;;4936020;29;20268;-62
2023/12/30 10:08:05;;;;;;;0.57;0.57;;;9.60;98.60;;;;;;4936052;29;20703;-62
2023/12/30 10:10:43;;;;;;;0.57;0.57;;;9.60;98.50;;;;;;4935675;29;20420;-62
2023/12/30 10:13:10;;;;;;;0.50;0.50;;;9.70;98.60;;;;;;4935946;29;20184;-62
2023/12/30 10:15:35;;;;;;;0.75;0.75;;;9.90;98.60;;;;;;4935823;29;20194;-61
2023/12/30 10:18:03;;;;;;;3.20;1.13;;;10.10;97.90;;;;;;4935821;29;20185;-61
2023/12/30 10:20:29;;;;;;;2.78;0.50;;;10.30;97.30;;;;;;4935486;29;20675;-62
2023/12/30 10:22:56;;;;;;;0.40;0.40;;;10.20;96.50;;;;;;4935746;29;20178;-62
2023/12/30 10:25:21;;;;;;;2.17;1.30;;;10.40;97.00;;;;;;4935400;29;20205;-60
2023/12/30 10:27:48;;;;;;;0.53;0.53;;;10.50;97.10;;;;;;4935643;29;20193;-62
2023/12/30 10:30:19;;;;;;;1.00;0.65;;;10.60;97.10;;;;;;4935289;29;20214;-60
2023/12/30 10:32:46;;;;;;;0.53;0.53;;;11.10;96.40;;;;;;4935763;29;20206;-62
2023/12/30 10:35:12;;;;;;;0.50;0.50;;;11.30;95.40;;;;;;4935524;29;20509;-62
2023/12/30 10:37:40;;;;;;;0.50;0.50;;;11.30;95.00;;;;;;4935493;29;20421;-62
2023/12/30 10:40:09;;;;;;;0.70;0.50;;;11.20;94.80;;;;;;4935103;29;20417;-61
2023/12/30 10:42:35;;;;;;;0.45;0.45;;;10.80;94.80;;;;;;4934712;29;20468;-62
2023/12/30 10:45:01;;;;;;;1.35;0.65;;;10.50;95.20;;;;;;4935324;29;20681;-62
2023/12/30 10:47:28;;;;;;;1.47;0.77;;;10.40;95.70;;;;;;4935235;29;20273;-62
2023/12/30 10:49:58;;;;;;;0.45;0.45;;;10.30;96.10;;;;;;4935096;29;20261;-61
2023/12/30 10:52:27;;;;;;;1.58;0.75;;;10.30;96.40;;;;;;4934908;29;20186;-62
2023/12/30 10:55:04;;;;;;;1.35;0.88;;;10.30;96.10;;;;;;4935172;29;20647;-62
2023/12/30 10:57:34;;;;;;;0.60;0.60;;;10.20;95.90;;;;;;4934989;29;20225;-61
2023/12/30 11:00:06;;;;;;;0.50;0.50;;;10.10;96.10;;;;;;4935039;29;20449;-62
2023/12/30 11:02:33;;;;;;;0.95;0.95;;;10.10;96.70;;;;;;4934935;29;20186;-61
2023/12/30 11:05:01;;;;;;;0.50;0.50;;;10.20;96.30;;;;;;4934828;29;20234;-62
2023/12/30 11:07:27;;;;;;;0.73;0.70;;;10.10;96.30;;;;;;4935103;29;20198;-62
2023/12/30 11:09:53;;;;;;;1.48;0.90;;;10.20;96.50;;;;;;4934935;29;20290;-61
2023/12/30 11:12:19;;;;;;;1.20;1.13;;;10.30;96.20;;;;;;4917729;29;20273;-62
2023/12/30 11:14:47;;;;;;;0.40;0.40;;;10.40;96.10;;;;;;4934902;29;20174;-62
2023/12/30 11:17:33;;;;;;;1.05;1.00;;;10.50;96.20;;;;;;4934740;29;20500;-62
2023/12/30 11:20:23;;;;;;;0.50;0.50;;;10.60;96.20;;;;;;4934596;29;20186;-62
2023/12/30 11:22:49;;;;;;;0.50;0.50;;;10.70;95.30;;;;;;4934726;29;20652;-62
2023/12/30 11:25:14;;;;;;;1.47;1.37;;;10.70;95.50;;;;;;4934595;29;20198;-61
2023/12/30 11:27:40;;;;;;;0.70;0.50;;;10.70;95.50;;;;;;4934728;29;20909;-62
2023/12/30 11:30:16;;;;;;;0.50;0.50;;;10.80;95.60;;;;;;4934490;29;20295;-62
2023/12/30 11:32:41;;;;;;;1.55;0.70;;;10.80;95.30;;;;;;4934697;29;20240;-62
2023/12/30 11:35:07;;;;;;;0.67;0.67;;;10.80;95.50;;;;;;4934566;29;20233;-62
2023/12/30 11:37:37;;;;;;;0.63;0.60;;;10.70;95.60;;;;;;4934853;29;20198;-62
2023/12/30 11:40:04;;;;;;;23.02;1.23;;;10.70;95.60;;;;;;4934368;29;20410;-61
2023/12/30 11:42:30;;;;;;;0.63;0.60;;;10.70;95.60;;;;;;4934307;29;20270;-62
2023/12/30 11:44:56;;;;;;;3.03;0.73;;;10.80;95.40;;;;;;4934504;29;20663;-62
2023/12/30 11:47:21;;;;;;;0.87;0.87;;;10.70;94.90;;;;;;4934552;29;20253;-62
2023/12/30 11:49:47;;;;;;;0.40;0.40;;;10.70;95.20;;;;;;4934403;29;20178;-62
2023/12/30 11:52:13;;;;;;;0.57;0.57;;;10.80;95.50;;;;;;4934311;29;20668;-61
2023/12/30 11:54:39;;;;;;;0.73;0.73;;;10.80;95.30;;;;;;4936806;29;20170;-62
2023/12/30 11:57:09;;;;;;;0.53;0.53;;;10.80;95.40;;;;;;4938122;29;20213;-62
2023/12/30 11:59:35;;;;;;;5.07;0.80;;;10.70;95.40;;;;;;4938330;29;20414;-61
2023/12/30 12:02:13;;;;;;;1.13;0.97;;;10.50;96.10;;;;;;4938282;29;20418;-60
2023/12/30 12:04:40;;;;;;;0.40;0.40;;;10.50;96.10;;;;;;4938061;29;20501;-62
2023/12/30 12:07:05;;;;;;;0.77;0.70;;;10.60;96.10;;;;;;4938160;29;20492;-62
2023/12/30 12:09:31;;;;;;;1.10;1.10;;;10.70;95.70;;;;;;4938003;29;20481;-62
2023/12/30 12:11:57;;;;;;;0.70;0.70;;;10.60;95.40;;;;;;4938144;29;20197;-62
2023/12/30 12:14:24;;;;;;;0.50;0.43;;;10.40;95.20;;;;;;4938058;29;20170;-62
2023/12/30 12:16:50;;;;;;;0.70;0.70;;;10.40;95.20;;;;;;4937975;29;20201;-62
2023/12/30 12:19:16;;;;;;;1.17;0.82;;;10.20;95.30;;;;;;4937925;29;20554;-62
2023/12/30 12:21:42;;;;;;;0.40;0.40;;;10.10;95.50;;;;;;4937631;29;20175;-62
2023/12/30 12:24:07;;;;;;;0.97;0.70;;;10.00;95.70;;;;;;4937715;29;20850;-62
2023/12/30 12:26:33;;;;;;;1.07;1.07;;;10.00;96.30;;;;;;4937619;29;20604;-62
2023/12/30 12:28:59;;;;;;;3.03;1.33;;;10.00;96.00;;;;;;4937729;29;20170;-62
2023/12/30 12:31:30;;;;;;;0.50;0.50;;;10.10;95.90;;;;;;4937560;29;20536;-61
2023/12/30 12:33:56;;;;;;;0.70;0.70;;;10.20;96.00;;;;;;4937754;29;20175;-62
2023/12/30 12:36:22;;;;;;;0.50;0.50;;;10.20;96.10;;;;;;4937595;29;20582;-62
2023/12/30 12:38:50;;;;;;;5.17;0.63;;;10.20;96.10;;;;;;4937471;29;20182;-62
2023/12/30 12:41:15;;;;;;;0.40;0.40;;;10.20;96.10;;;;;;4937490;29;20833;-62
2023/12/30 12:43:41;;;;;;;0.40;0.40;;;10.20;96.60;;;;;;4937498;29;20185;-61
2023/12/30 12:46:08;;;;;;;0.80;0.50;;;10.20;96.60;;;;;;4937380;29;20209;-62
2023/12/30 12:48:34;;;;;;;0.50;0.43;;;10.10;96.10;;;;;;4937441;29;20269;-62
2023/12/30 12:50:59;;;;;;;0.53;0.53;;;10.10;96.20;;;;;;4937105;29;20202;-62